sensor_id;sensor_type;location;lat;lon;timestamp;temperature;humidity
2012;DHT22;1009;51.436;6.972;2023-06-10T00:00:03;22.00;99.90
2012;DHT22;1009;51.436;6.972;2023-06-10T00:02:31;22.00;99.90
2012;DHT22;1009;51.436;6.972;2023-06-10T00:04:57;22.00;99.90
2012;DHT22;1009;51.436;6.972;2023-06-10T00:07:24;22.00;99.90
2012;DHT22;1009;51.436;6.972;2023-06-10T00:09:51;22.00;99.90
2012;DHT22;1009;51.436;6.972;2023-06-10T00:12:19;21.90;99.90
2012;DHT22;1009;51.436;6.972;2023-06-10T00:14:46;21.90;99.90
2012;DHT22;1009;51.436;6.972;2023-06-10T00:17:15;22.00;99.90
2012;DHT22;1009;51.436;6.972;2023-06-10T00:19:42;22.00;99.90
2012;DHT22;1009;51.436;6.972;2023-06-10T00:22:09;21.90;99.90
2012;DHT22;1009;51.436;6.972;2023-06-10T00:24:36;21.90;99.90
2012;DHT22;1009;51.436;6.972;2023-06-10T00:27:03;21.90;99.90
2012;DHT22;1009;51.436;6.972;2023-06-10T00:29:32;21.70;99.90
2012;DHT22;1009;51.436;6.972;2023-06-10T00:31:59;21.60;99.90
2012;DHT22;1009;51.436;6.972;2023-06-10T00:34:25;21.50;99.90
2012;DHT22;1009;51.436;6.972;2023-06-10T00:36:52;21.50;99.90
2012;DHT22;1009;51.436;6.972;2023-06-10T00:39:19;21.50;99.90
2012;DHT22;1009;51.436;6.972;2023-06-10T00:41:45;21.50;99.90
2012;DHT22;1009;51.436;6.972;2023-06-10T00:44:12;21.50;99.90
2012;DHT22;1009;51.436;6.972;2023-06-10T00:46:40;21.50;99.90
2012;DHT22;1009;51.436;6.972;2023-06-10T00:49:07;21.40;99.90
2012;DHT22;1009;51.436;6.972;2023-06-10T00:51:34;21.50;99.90
2012;DHT22;1009;51.436;6.972;2023-06-10T00:54:02;21.40;99.90
2012;DHT22;1009;51.436;6.972;2023-06-10T00:56:29;21.40;99.90
2012;DHT22;1009;51.436;6.972;2023-06-10T00:58:55;21.40;99.90
2012;DHT22;1009;51.436;6.972;2023-06-10T01:01:22;21.40;99.90
2012;DHT22;1009;51.436;6.972;2023-06-10T01:03:50;21.30;99.90
2012;DHT22;1009;51.436;6.972;2023-06-10T01:06:24;21.20;99.90
2012;DHT22;1009;51.436;6.972;2023-06-10T01:09:02;21.10;99.90
2012;DHT22;1009;51.436;6.972;2023-06-10T01:11:36;21.00;99.90
2012;DHT22;1009;51.436;6.972;2023-06-10T01:14:03;20.80;99.90
2012;DHT22;1009;51.436;6.972;2023-06-10T01:16:33;20.80;99.90
2012;DHT22;1009;51.436;6.972;2023-06-10T01:19:02;20.90;99.90
2012;DHT22;1009;51.436;6.972;2023-06-10T01:21:30;20.90;99.90
2012;DHT22;1009;51.436;6.972;2023-06-10T01:23:57;20.90;99.90
2012;DHT22;1009;51.436;6.972;2023-06-10T01:26:29;20.90;99.90
2012;DHT22;1009;51.436;6.972;2023-06-10T01:28:59;20.90;99.90
2012;DHT22;1009;51.436;6.972;2023-06-10T01:31:32;20.90;99.90
2012;DHT22;1009;51.436;6.972;2023-06-10T01:34:00;20.90;99.90
2012;DHT22;1009;51.436;6.972;2023-06-10T01:36:27;20.90;99.90
2012;DHT22;1009;51.436;6.972;2023-06-10T01:38:56;20.90;99.90
2012;DHT22;1009;51.436;6.972;2023-06-10T01:41:25;20.80;99.90
2012;DHT22;1009;51.436;6.972;2023-06-10T01:43:51;20.80;99.90
2012;DHT22;1009;51.436;6.972;2023-06-10T01:46:18;20.80;99.90
2012;DHT22;1009;51.436;6.972;2023-06-10T01:48:46;20.80;99.90
2012;DHT22;1009;51.436;6.972;2023-06-10T01:51:13;20.80;99.90
2012;DHT22;1009;51.436;6.972;2023-06-10T01:53:40;20.80;99.90
2012;DHT22;1009;51.436;6.972;2023-06-10T01:56:08;20.70;99.90
2012;DHT22;1009;51.436;6.972;2023-06-10T01:58:35;20.70;99.90
2012;DHT22;1009;51.436;6.972;2023-06-10T02:01:02;20.60;99.90
2012;DHT22;1009;51.436;6.972;2023-06-10T02:03:28;20.60;99.90
2012;DHT22;1009;51.436;6.972;2023-06-10T02:05:55;20.60;99.90
2012;DHT22;1009;51.436;6.972;2023-06-10T02:08:22;20.50;99.90
2012;DHT22;1009;51.436;6.972;2023-06-10T02:10:48;20.50;99.90
2012;DHT22;1009;51.436;6.972;2023-06-10T02:13:16;20.40;99.90
2012;DHT22;1009;51.436;6.972;2023-06-10T02:15:43;20.40;99.90
2012;DHT22;1009;51.436;6.972;2023-06-10T02:18:10;20.40;99.90
2012;DHT22;1009;51.436;6.972;2023-06-10T02:20:37;20.40;99.90
2012;DHT22;1009;51.436;6.972;2023-06-10T02:23:04;20.40;99.90
2012;DHT22;1009;51.436;6.972;2023-06-10T02:25:30;20.30;99.90
2012;DHT22;1009;51.436;6.972;2023-06-10T02:27:57;20.30;99.90
2012;DHT22;1009;51.436;6.972;2023-06-10T02:30:25;20.20;99.90
2012;DHT22;1009;51.436;6.972;2023-06-10T02:32:52;20.20;99.90
2012;DHT22;1009;51.436;6.972;2023-06-10T02:35:18;20.20;99.90
2012;DHT22;1009;51.436;6.972;2023-06-10T02:37:45;20.10;99.90
2012;DHT22;1009;51.436;6.972;2023-06-10T02:40:12;20.10;99.90
2012;DHT22;1009;51.436;6.972;2023-06-10T02:42:38;20.10;99.90
2012;DHT22;1009;51.436;6.972;2023-06-10T02:45:06;20.10;99.90
2012;DHT22;1009;51.436;6.972;2023-06-10T02:47:37;20.00;99.90
2012;DHT22;1009;51.436;6.972;2023-06-10T02:50:04;20.00;99.90
2012;DHT22;1009;51.436;6.972;2023-06-10T02:52:31;20.00;99.90
2012;DHT22;1009;51.436;6.972;2023-06-10T02:54:58;19.90;99.90
2012;DHT22;1009;51.436;6.972;2023-06-10T02:57:25;19.90;99.90
2012;DHT22;1009;51.436;6.972;2023-06-10T02:59:52;19.90;99.90
2012;DHT22;1009;51.436;6.972;2023-06-10T03:02:19;19.80;99.90
2012;DHT22;1009;51.436;6.972;2023-06-10T03:04:48;19.80;99.90
2012;DHT22;1009;51.436;6.972;2023-06-10T03:07:15;19.80;99.90
2012;DHT22;1009;51.436;6.972;2023-06-10T03:09:43;19.80;99.90
2012;DHT22;1009;51.436;6.972;2023-06-10T03:12:10;19.80;99.90
2012;DHT22;1009;51.436;6.972;2023-06-10T03:14:37;19.80;99.90
2012;DHT22;1009;51.436;6.972;2023-06-10T03:17:04;19.80;99.90
2012;DHT22;1009;51.436;6.972;2023-06-10T03:19:31;19.80;99.90
2012;DHT22;1009;51.436;6.972;2023-06-10T03:22:09;19.70;99.90
2012;DHT22;1009;51.436;6.972;2023-06-10T03:24:36;19.70;99.90
2012;DHT22;1009;51.436;6.972;2023-06-10T03:27:06;19.70;99.90
2012;DHT22;1009;51.436;6.972;2023-06-10T03:29:33;19.70;99.90
2012;DHT22;1009;51.436;6.972;2023-06-10T03:32:00;19.60;99.90
2012;DHT22;1009;51.436;6.972;2023-06-10T03:34:27;19.70;99.90
2012;DHT22;1009;51.436;6.972;2023-06-10T03:36:55;19.70;99.90
2012;DHT22;1009;51.436;6.972;2023-06-10T03:39:23;19.70;99.90
2012;DHT22;1009;51.436;6.972;2023-06-10T03:41:50;19.70;99.90
2012;DHT22;1009;51.436;6.972;2023-06-10T03:44:16;19.60;99.90
2012;DHT22;1009;51.436;6.972;2023-06-10T03:46:43;19.60;99.90
2012;DHT22;1009;51.436;6.972;2023-06-10T03:49:11;19.60;99.90
2012;DHT22;1009;51.436;6.972;2023-06-10T03:51:37;19.60;99.90
2012;DHT22;1009;51.436;6.972;2023-06-10T03:54:04;19.60;99.90
2012;DHT22;1009;51.436;6.972;2023-06-10T03:56:32;19.50;99.90
2012;DHT22;1009;51.436;6.972;2023-06-10T03:58:59;19.50;99.90
2012;DHT22;1009;51.436;6.972;2023-06-10T04:01:26;19.50;99.90
2012;DHT22;1009;51.436;6.972;2023-06-10T04:03:53;19.50;99.90
2012;DHT22;1009;51.436;6.972;2023-06-10T04:06:20;19.50;99.90
2012;DHT22;1009;51.436;6.972;2023-06-10T04:08:50;19.50;99.90
2012;DHT22;1009;51.436;6.972;2023-06-10T04:11:17;19.50;99.90
2012;DHT22;1009;51.436;6.972;2023-06-10T04:13:45;19.50;99.90
2012;DHT22;1009;51.436;6.972;2023-06-10T04:16:12;19.40;99.90
2012;DHT22;1009;51.436;6.972;2023-06-10T04:18:38;19.40;99.90
2012;DHT22;1009;51.436;6.972;2023-06-10T04:21:07;19.40;99.90
2012;DHT22;1009;51.436;6.972;2023-06-10T04:23:34;19.30;99.90
2012;DHT22;1009;51.436;6.972;2023-06-10T04:26:02;19.40;99.90
2012;DHT22;1009;51.436;6.972;2023-06-10T04:28:28;19.30;99.90
2012;DHT22;1009;51.436;6.972;2023-06-10T04:30:56;19.30;99.90
2012;DHT22;1009;51.436;6.972;2023-06-10T04:33:24;19.30;99.90
2012;DHT22;1009;51.436;6.972;2023-06-10T04:35:50;19.20;99.90
2012;DHT22;1009;51.436;6.972;2023-06-10T04:38:17;19.20;99.90
2012;DHT22;1009;51.436;6.972;2023-06-10T04:40:44;19.30;99.90
2012;DHT22;1009;51.436;6.972;2023-06-10T04:43:11;19.40;99.90
2012;DHT22;1009;51.436;6.972;2023-06-10T04:45:38;19.30;99.90
2012;DHT22;1009;51.436;6.972;2023-06-10T04:48:06;19.40;99.90
2012;DHT22;1009;51.436;6.972;2023-06-10T04:50:33;19.20;99.90
2012;DHT22;1009;51.436;6.972;2023-06-10T04:52:59;19.30;99.90
2012;DHT22;1009;51.436;6.972;2023-06-10T04:55:26;19.20;99.90
2012;DHT22;1009;51.436;6.972;2023-06-10T04:57:53;19.20;99.90
2012;DHT22;1009;51.436;6.972;2023-06-10T05:00:19;19.30;99.90
2012;DHT22;1009;51.436;6.972;2023-06-10T05:02:46;19.20;99.90
2012;DHT22;1009;51.436;6.972;2023-06-10T05:05:16;19.20;99.90
2012;DHT22;1009;51.436;6.972;2023-06-10T05:07:43;19.30;99.90
2012;DHT22;1009;51.436;6.972;2023-06-10T05:10:10;19.40;99.90
2012;DHT22;1009;51.436;6.972;2023-06-10T05:12:37;19.40;99.90
2012;DHT22;1009;51.436;6.972;2023-06-10T05:15:05;19.50;99.90
2012;DHT22;1009;51.436;6.972;2023-06-10T05:17:32;19.50;99.90
2012;DHT22;1009;51.436;6.972;2023-06-10T05:20:00;19.60;99.90
2012;DHT22;1009;51.436;6.972;2023-06-10T05:22:28;19.60;99.90
2012;DHT22;1009;51.436;6.972;2023-06-10T05:24:55;19.60;99.90
2012;DHT22;1009;51.436;6.972;2023-06-10T05:27:22;19.70;99.90
2012;DHT22;1009;51.436;6.972;2023-06-10T05:29:49;19.80;99.90
2012;DHT22;1009;51.436;6.972;2023-06-10T05:32:17;19.80;99.90
2012;DHT22;1009;51.436;6.972;2023-06-10T05:34:43;19.80;99.90
2012;DHT22;1009;51.436;6.972;2023-06-10T05:37:10;19.90;99.90
2012;DHT22;1009;51.436;6.972;2023-06-10T05:39:38;20.00;99.90
2012;DHT22;1009;51.436;6.972;2023-06-10T05:42:06;20.00;99.90
2012;DHT22;1009;51.436;6.972;2023-06-10T05:44:33;20.10;99.90
2012;DHT22;1009;51.436;6.972;2023-06-10T05:47:00;20.20;99.90
2012;DHT22;1009;51.436;6.972;2023-06-10T05:49:26;20.20;99.90
2012;DHT22;1009;51.436;6.972;2023-06-10T05:51:53;20.20;99.90
2012;DHT22;1009;51.436;6.972;2023-06-10T05:54:21;20.30;99.90
2012;DHT22;1009;51.436;6.972;2023-06-10T05:56:49;20.40;99.90
2012;DHT22;1009;51.436;6.972;2023-06-10T05:59:16;20.50;99.90
2012;DHT22;1009;51.436;6.972;2023-06-10T06:01:43;20.60;99.90
2012;DHT22;1009;51.436;6.972;2023-06-10T06:04:09;20.70;99.90
2012;DHT22;1009;51.436;6.972;2023-06-10T06:06:39;20.80;99.90
2012;DHT22;1009;51.436;6.972;2023-06-10T06:09:06;21.00;99.90
2012;DHT22;1009;51.436;6.972;2023-06-10T06:11:33;21.00;99.90
2012;DHT22;1009;51.436;6.972;2023-06-10T06:14:02;21.00;99.90
2012;DHT22;1009;51.436;6.972;2023-06-10T06:16:28;21.10;99.90
2012;DHT22;1009;51.436;6.972;2023-06-10T06:18:55;21.20;99.90
2012;DHT22;1009;51.436;6.972;2023-06-10T06:21:22;21.20;99.90
2012;DHT22;1009;51.436;6.972;2023-06-10T06:23:48;21.40;99.90
2012;DHT22;1009;51.436;6.972;2023-06-10T06:26:15;21.40;99.90
2012;DHT22;1009;51.436;6.972;2023-06-10T06:28:42;21.60;99.90
2012;DHT22;1009;51.436;6.972;2023-06-10T06:31:10;21.70;99.90
2012;DHT22;1009;51.436;6.972;2023-06-10T06:33:37;21.80;99.90
2012;DHT22;1009;51.436;6.972;2023-06-10T06:36:04;21.90;99.90
2012;DHT22;1009;51.436;6.972;2023-06-10T06:38:31;22.00;99.90
2012;DHT22;1009;51.436;6.972;2023-06-10T06:40:57;22.00;99.90
2012;DHT22;1009;51.436;6.972;2023-06-10T06:43:28;22.10;99.90
2012;DHT22;1009;51.436;6.972;2023-06-10T06:45:55;22.20;99.90
2012;DHT22;1009;51.436;6.972;2023-06-10T06:48:23;22.40;99.90
2012;DHT22;1009;51.436;6.972;2023-06-10T06:50:50;22.50;99.90
2012;DHT22;1009;51.436;6.972;2023-06-10T06:53:16;22.60;99.90
2012;DHT22;1009;51.436;6.972;2023-06-10T06:55:43;22.70;99.90
2012;DHT22;1009;51.436;6.972;2023-06-10T06:58:10;22.80;99.90
2012;DHT22;1009;51.436;6.972;2023-06-10T07:00:36;23.00;99.90
2012;DHT22;1009;51.436;6.972;2023-06-10T07:03:03;23.10;99.90
2012;DHT22;1009;51.436;6.972;2023-06-10T07:05:31;23.10;99.90
2012;DHT22;1009;51.436;6.972;2023-06-10T07:07:58;23.20;99.90
2012;DHT22;1009;51.436;6.972;2023-06-10T07:10:25;23.30;99.90
2012;DHT22;1009;51.436;6.972;2023-06-10T07:12:52;23.30;99.90
2012;DHT22;1009;51.436;6.972;2023-06-10T07:15:19;23.20;99.90
2012;DHT22;1009;51.436;6.972;2023-06-10T07:17:46;23.10;99.90
2012;DHT22;1009;51.436;6.972;2023-06-10T07:20:12;23.20;99.90
2012;DHT22;1009;51.436;6.972;2023-06-10T07:22:41;23.30;99.90
2012;DHT22;1009;51.436;6.972;2023-06-10T07:25:08;23.40;99.90
2012;DHT22;1009;51.436;6.972;2023-06-10T07:27:35;23.40;99.90
2012;DHT22;1009;51.436;6.972;2023-06-10T07:30:03;23.50;99.90
2012;DHT22;1009;51.436;6.972;2023-06-10T07:32:30;23.70;99.90
2012;DHT22;1009;51.436;6.972;2023-06-10T07:34:56;23.80;99.90
2012;DHT22;1009;51.436;6.972;2023-06-10T07:37:23;24.00;99.90
2012;DHT22;1009;51.436;6.972;2023-06-10T07:39:51;24.20;99.90
2012;DHT22;1009;51.436;6.972;2023-06-10T07:42:18;24.40;99.90
2012;DHT22;1009;51.436;6.972;2023-06-10T07:44:46;24.50;99.90
2012;DHT22;1009;51.436;6.972;2023-06-10T07:47:13;24.70;99.90
2012;DHT22;1009;51.436;6.972;2023-06-10T07:49:40;24.80;99.90
2012;DHT22;1009;51.436;6.972;2023-06-10T07:52:07;24.90;99.90
2012;DHT22;1009;51.436;6.972;2023-06-10T07:54:34;25.00;99.90
2012;DHT22;1009;51.436;6.972;2023-06-10T07:57:02;25.10;99.90
2012;DHT22;1009;51.436;6.972;2023-06-10T07:59:30;25.20;99.90
2012;DHT22;1009;51.436;6.972;2023-06-10T08:01:56;25.40;99.90
2012;DHT22;1009;51.436;6.972;2023-06-10T08:04:23;25.50;99.90
2012;DHT22;1009;51.436;6.972;2023-06-10T08:06:50;25.40;99.90
2012;DHT22;1009;51.436;6.972;2023-06-10T08:09:16;25.50;99.90
2012;DHT22;1009;51.436;6.972;2023-06-10T08:11:44;25.40;99.90
2012;DHT22;1009;51.436;6.972;2023-06-10T08:14:13;25.30;99.90
2012;DHT22;1009;51.436;6.972;2023-06-10T08:16:43;25.30;99.90
2012;DHT22;1009;51.436;6.972;2023-06-10T08:19:10;25.30;99.90
2012;DHT22;1009;51.436;6.972;2023-06-10T08:21:36;25.00;99.90
2012;DHT22;1009;51.436;6.972;2023-06-10T08:24:05;25.00;99.90
2012;DHT22;1009;51.436;6.972;2023-06-10T08:26:32;25.10;99.90
2012;DHT22;1009;51.436;6.972;2023-06-10T08:28:59;25.30;99.90
2012;DHT22;1009;51.436;6.972;2023-06-10T08:31:27;25.50;99.90
2012;DHT22;1009;51.436;6.972;2023-06-10T08:33:53;25.70;99.90
2012;DHT22;1009;51.436;6.972;2023-06-10T08:36:20;25.80;99.90
2012;DHT22;1009;51.436;6.972;2023-06-10T08:38:47;26.00;99.90
2012;DHT22;1009;51.436;6.972;2023-06-10T08:41:15;26.00;99.90
2012;DHT22;1009;51.436;6.972;2023-06-10T08:43:46;26.10;99.90
2012;DHT22;1009;51.436;6.972;2023-06-10T08:46:14;26.30;99.90
2012;DHT22;1009;51.436;6.972;2023-06-10T08:48:43;26.30;99.90
2012;DHT22;1009;51.436;6.972;2023-06-10T08:51:11;26.50;99.90
2012;DHT22;1009;51.436;6.972;2023-06-10T08:53:50;26.70;99.90
2012;DHT22;1009;51.436;6.972;2023-06-10T08:56:20;26.80;99.90
2012;DHT22;1009;51.436;6.972;2023-06-10T08:58:48;26.60;99.90
2012;DHT22;1009;51.436;6.972;2023-06-10T09:01:14;26.60;99.90
2012;DHT22;1009;51.436;6.972;2023-06-10T09:03:43;26.40;99.90
2012;DHT22;1009;51.436;6.972;2023-06-10T09:06:10;26.30;99.90
2012;DHT22;1009;51.436;6.972;2023-06-10T09:08:37;26.10;99.90
2012;DHT22;1009;51.436;6.972;2023-06-10T09:11:05;26.00;99.90
2012;DHT22;1009;51.436;6.972;2023-06-10T09:13:35;26.10;99.90
2012;DHT22;1009;51.436;6.972;2023-06-10T09:16:02;26.30;99.90
2012;DHT22;1009;51.436;6.972;2023-06-10T09:18:29;26.60;99.90
2012;DHT22;1009;51.436;6.972;2023-06-10T09:20:57;26.80;99.90
2012;DHT22;1009;51.436;6.972;2023-06-10T09:23:24;27.00;99.90
2012;DHT22;1009;51.436;6.972;2023-06-10T09:25:56;27.10;99.90
2012;DHT22;1009;51.436;6.972;2023-06-10T09:28:24;27.10;99.90
2012;DHT22;1009;51.436;6.972;2023-06-10T09:31:02;27.30;99.90
2012;DHT22;1009;51.436;6.972;2023-06-10T09:33:29;27.50;99.90
2012;DHT22;1009;51.436;6.972;2023-06-10T09:35:57;27.20;98.60
2012;DHT22;1009;51.436;6.972;2023-06-10T09:38:30;27.20;98.90
2012;DHT22;1009;51.436;6.972;2023-06-10T09:40:57;27.20;99.90
2012;DHT22;1009;51.436;6.972;2023-06-10T09:43:38;27.30;99.90
2012;DHT22;1009;51.436;6.972;2023-06-10T09:46:05;27.40;99.40
2012;DHT22;1009;51.436;6.972;2023-06-10T09:48:34;27.40;99.40
2012;DHT22;1009;51.436;6.972;2023-06-10T09:51:08;27.40;99.90
2012;DHT22;1009;51.436;6.972;2023-06-10T09:53:35;27.50;98.20
2012;DHT22;1009;51.436;6.972;2023-06-10T09:56:02;27.70;98.90
2012;DHT22;1009;51.436;6.972;2023-06-10T09:58:36;27.90;97.20
2012;DHT22;1009;51.436;6.972;2023-06-10T10:01:07;28.00;97.90
2012;DHT22;1009;51.436;6.972;2023-06-10T10:03:43;28.20;99.80
2012;DHT22;1009;51.436;6.972;2023-06-10T10:06:12;28.50;96.80
2012;DHT22;1009;51.436;6.972;2023-06-10T10:08:39;28.70;95.90
2012;DHT22;1009;51.436;6.972;2023-06-10T10:11:05;28.90;94.20
2012;DHT22;1009;51.436;6.972;2023-06-10T10:13:33;29.10;92.90
2012;DHT22;1009;51.436;6.972;2023-06-10T10:16:04;29.00;93.70
2012;DHT22;1009;51.436;6.972;2023-06-10T10:18:33;29.10;94.60
2012;DHT22;1009;51.436;6.972;2023-06-10T10:21:05;28.70;90.90
2012;DHT22;1009;51.436;6.972;2023-06-10T10:23:40;28.40;91.40
2012;DHT22;1009;51.436;6.972;2023-06-10T10:26:10;28.30;92.60
2012;DHT22;1009;51.436;6.972;2023-06-10T10:28:41;28.20;93.30
2012;DHT22;1009;51.436;6.972;2023-06-10T10:31:12;28.20;91.70
2012;DHT22;1009;51.436;6.972;2023-06-10T10:33:45;28.10;92.80
2012;DHT22;1009;51.436;6.972;2023-06-10T10:36:14;28.20;94.70
2012;DHT22;1009;51.436;6.972;2023-06-10T10:38:43;28.10;92.10
2012;DHT22;1009;51.436;6.972;2023-06-10T10:41:11;28.40;92.80
2012;DHT22;1009;51.436;6.972;2023-06-10T10:43:38;28.70;94.70
2012;DHT22;1009;51.436;6.972;2023-06-10T10:46:14;29.00;91.50
2012;DHT22;1009;51.436;6.972;2023-06-10T10:48:44;28.80;89.00
2012;DHT22;1009;51.436;6.972;2023-06-10T10:51:11;29.00;91.60
2012;DHT22;1009;51.436;6.972;2023-06-10T10:53:38;29.30;90.40
2012;DHT22;1009;51.436;6.972;2023-06-10T10:56:07;29.50;87.70
2012;DHT22;1009;51.436;6.972;2023-06-10T10:58:34;29.50;85.40
2012;DHT22;1009;51.436;6.972;2023-06-10T11:01:10;29.40;83.20
2012;DHT22;1009;51.436;6.972;2023-06-10T11:03:42;29.20;85.50
2012;DHT22;1009;51.436;6.972;2023-06-10T11:06:13;29.50;87.10
2012;DHT22;1009;51.436;6.972;2023-06-10T11:08:47;29.90;84.30
2012;DHT22;1009;51.436;6.972;2023-06-10T11:11:20;30.20;80.00
2012;DHT22;1009;51.436;6.972;2023-06-10T11:14:07;30.60;83.10
2012;DHT22;1009;51.436;6.972;2023-06-10T11:16:39;30.40;79.70
2012;DHT22;1009;51.436;6.972;2023-06-10T11:19:07;30.40;79.90
2012;DHT22;1009;51.436;6.972;2023-06-10T11:21:57;30.40;84.00
2012;DHT22;1009;51.436;6.972;2023-06-10T11:24:24;30.60;85.30
2012;DHT22;1009;51.436;6.972;2023-06-10T11:26:53;30.30;73.00
2012;DHT22;1009;51.436;6.972;2023-06-10T11:29:20;30.20;74.90
2012;DHT22;1009;51.436;6.972;2023-06-10T11:31:50;29.90;72.50
2012;DHT22;1009;51.436;6.972;2023-06-10T11:34:24;29.90;76.40
2012;DHT22;1009;51.436;6.972;2023-06-10T11:36:52;30.10;77.70
2012;DHT22;1009;51.436;6.972;2023-06-10T11:39:20;30.30;76.40
2012;DHT22;1009;51.436;6.972;2023-06-10T11:41:48;30.30;71.50
2012;DHT22;1009;51.436;6.972;2023-06-10T11:44:18;30.00;71.60
2012;DHT22;1009;51.436;6.972;2023-06-10T11:46:45;30.00;74.70
2012;DHT22;1009;51.436;6.972;2023-06-10T11:49:14;30.30;76.40
2012;DHT22;1009;51.436;6.972;2023-06-10T11:51:41;30.70;71.70
2012;DHT22;1009;51.436;6.972;2023-06-10T11:54:17;31.10;71.30
2012;DHT22;1009;51.436;6.972;2023-06-10T11:56:44;31.40;67.90
2012;DHT22;1009;51.436;6.972;2023-06-10T11:59:10;31.00;68.90
2012;DHT22;1009;51.436;6.972;2023-06-10T12:01:42;30.60;67.80
2012;DHT22;1009;51.436;6.972;2023-06-10T12:04:10;30.50;66.10
2012;DHT22;1009;51.436;6.972;2023-06-10T12:06:38;30.40;66.60
2012;DHT22;1009;51.436;6.972;2023-06-10T12:09:05;30.10;67.30
2012;DHT22;1009;51.436;6.972;2023-06-10T12:11:32;29.90;67.60
2012;DHT22;1009;51.436;6.972;2023-06-10T12:13:59;30.10;70.40
2012;DHT22;1009;51.436;6.972;2023-06-10T12:16:26;30.50;71.70
2012;DHT22;1009;51.436;6.972;2023-06-10T12:19:01;30.70;69.30
2012;DHT22;1009;51.436;6.972;2023-06-10T12:21:29;30.80;68.10
2012;DHT22;1009;51.436;6.972;2023-06-10T12:24:04;30.90;67.20
2012;DHT22;1009;51.436;6.972;2023-06-10T12:26:38;30.90;65.60
2012;DHT22;1009;51.436;6.972;2023-06-10T12:29:22;31.00;66.90
2012;DHT22;1009;51.436;6.972;2023-06-10T12:32:00;31.10;65.80
2012;DHT22;1009;51.436;6.972;2023-06-10T12:34:34;30.60;64.40
2012;DHT22;1009;51.436;6.972;2023-06-10T12:37:02;30.30;64.50
2012;DHT22;1009;51.436;6.972;2023-06-10T12:39:30;30.30;69.10
2012;DHT22;1009;51.436;6.972;2023-06-10T12:41:57;30.60;65.80
2012;DHT22;1009;51.436;6.972;2023-06-10T12:44:31;31.00;64.90
2012;DHT22;1009;51.436;6.972;2023-06-10T12:46:58;31.10;63.10
2012;DHT22;1009;51.436;6.972;2023-06-10T12:49:24;31.30;63.90
2012;DHT22;1009;51.436;6.972;2023-06-10T12:51:53;31.10;63.00
2012;DHT22;1009;51.436;6.972;2023-06-10T12:54:20;31.30;62.70
2012;DHT22;1009;51.436;6.972;2023-06-10T12:56:47;31.40;65.50
2012;DHT22;1009;51.436;6.972;2023-06-10T12:59:14;31.10;60.70
2012;DHT22;1009;51.436;6.972;2023-06-10T13:01:41;30.80;61.00
2012;DHT22;1009;51.436;6.972;2023-06-10T13:04:07;31.00;63.10
2012;DHT22;1009;51.436;6.972;2023-06-10T13:06:35;30.80;63.50
2012;DHT22;1009;51.436;6.972;2023-06-10T13:09:05;30.70;64.20
2012;DHT22;1009;51.436;6.972;2023-06-10T13:11:33;31.10;61.80
2012;DHT22;1009;51.436;6.972;2023-06-10T13:14:00;31.40;58.70
2012;DHT22;1009;51.436;6.972;2023-06-10T13:16:28;31.60;61.50
2012;DHT22;1009;51.436;6.972;2023-06-10T13:18:55;31.70;62.20
2012;DHT22;1009;51.436;6.972;2023-06-10T13:21:21;31.60;64.70
2012;DHT22;1009;51.436;6.972;2023-06-10T13:23:48;31.60;60.10
2012;DHT22;1009;51.436;6.972;2023-06-10T13:26:17;31.50;63.10
2012;DHT22;1009;51.436;6.972;2023-06-10T13:28:44;31.40;60.60
2012;DHT22;1009;51.436;6.972;2023-06-10T13:31:11;31.70;59.40
2012;DHT22;1009;51.436;6.972;2023-06-10T13:33:38;31.90;58.10
2012;DHT22;1009;51.436;6.972;2023-06-10T13:36:05;32.20;58.30
2012;DHT22;1009;51.436;6.972;2023-06-10T13:38:32;32.10;59.00
2012;DHT22;1009;51.436;6.972;2023-06-10T13:40:59;32.10;58.30
2012;DHT22;1009;51.436;6.972;2023-06-10T13:43:27;32.20;64.80
2012;DHT22;1009;51.436;6.972;2023-06-10T13:45:54;32.00;58.50
2012;DHT22;1009;51.436;6.972;2023-06-10T13:48:21;31.80;58.10
2012;DHT22;1009;51.436;6.972;2023-06-10T13:50:48;31.70;58.60
2012;DHT22;1009;51.436;6.972;2023-06-10T13:53:14;31.50;58.30
2012;DHT22;1009;51.436;6.972;2023-06-10T13:55:41;30.90;59.00
2012;DHT22;1009;51.436;6.972;2023-06-10T13:58:08;30.80;60.10
2012;DHT22;1009;51.436;6.972;2023-06-10T14:00:36;31.10;57.90
2012;DHT22;1009;51.436;6.972;2023-06-10T14:03:03;31.30;60.10
2012;DHT22;1009;51.436;6.972;2023-06-10T14:05:29;30.90;59.90
2012;DHT22;1009;51.436;6.972;2023-06-10T14:07:57;30.60;58.00
2012;DHT22;1009;51.436;6.972;2023-06-10T14:10:23;30.60;59.20
2012;DHT22;1009;51.436;6.972;2023-06-10T14:12:50;30.90;58.70
2012;DHT22;1009;51.436;6.972;2023-06-10T14:15:17;31.20;57.90
2012;DHT22;1009;51.436;6.972;2023-06-10T14:17:45;31.40;59.40
2012;DHT22;1009;51.436;6.972;2023-06-10T14:20:12;31.70;57.70
2012;DHT22;1009;51.436;6.972;2023-06-10T14:22:39;31.70;57.60
2012;DHT22;1009;51.436;6.972;2023-06-10T14:25:06;31.40;58.90
2012;DHT22;1009;51.436;6.972;2023-06-10T14:27:33;31.10;56.30
2012;DHT22;1009;51.436;6.972;2023-06-10T14:30:00;30.60;58.60
2012;DHT22;1009;51.436;6.972;2023-06-10T14:32:28;30.50;59.00
2012;DHT22;1009;51.436;6.972;2023-06-10T14:34:56;30.40;59.50
2012;DHT22;1009;51.436;6.972;2023-06-10T14:37:23;30.50;58.00
2012;DHT22;1009;51.436;6.972;2023-06-10T14:39:49;30.70;58.60
2012;DHT22;1009;51.436;6.972;2023-06-10T14:42:16;30.80;59.20
2012;DHT22;1009;51.436;6.972;2023-06-10T14:44:43;30.80;58.60
2012;DHT22;1009;51.436;6.972;2023-06-10T14:47:09;30.70;58.60
2012;DHT22;1009;51.436;6.972;2023-06-10T14:49:36;30.60;59.90
2012;DHT22;1009;51.436;6.972;2023-06-10T14:52:04;30.80;58.60
2012;DHT22;1009;51.436;6.972;2023-06-10T14:54:31;31.00;57.20
2012;DHT22;1009;51.436;6.972;2023-06-10T14:56:58;31.20;57.50
2012;DHT22;1009;51.436;6.972;2023-06-10T14:59:24;31.40;57.60
2012;DHT22;1009;51.436;6.972;2023-06-10T15:01:51;31.40;58.90
2012;DHT22;1009;51.436;6.972;2023-06-10T15:04:18;31.10;57.00
2012;DHT22;1009;51.436;6.972;2023-06-10T15:06:45;30.90;58.70
2012;DHT22;1009;51.436;6.972;2023-06-10T15:09:15;30.80;59.90
2012;DHT22;1009;51.436;6.972;2023-06-10T15:11:42;30.60;58.00
2012;DHT22;1009;51.436;6.972;2023-06-10T15:14:09;30.60;58.20
2012;DHT22;1009;51.436;6.972;2023-06-10T15:16:35;30.60;58.50
2012;DHT22;1009;51.436;6.972;2023-06-10T15:19:02;30.50;59.70
2012;DHT22;1009;51.436;6.972;2023-06-10T15:21:32;30.30;59.50
2012;DHT22;1009;51.436;6.972;2023-06-10T15:23:58;30.30;57.90
2012;DHT22;1009;51.436;6.972;2023-06-10T15:26:26;30.40;58.20
2012;DHT22;1009;51.436;6.972;2023-06-10T15:28:53;30.40;58.60
2012;DHT22;1009;51.436;6.972;2023-06-10T15:31:20;30.30;59.80
2012;DHT22;1009;51.436;6.972;2023-06-10T15:33:47;30.30;60.00
2012;DHT22;1009;51.436;6.972;2023-06-10T15:36:14;30.30;57.00
2012;DHT22;1009;51.436;6.972;2023-06-10T15:38:40;30.40;56.30
2012;DHT22;1009;51.436;6.972;2023-06-10T15:41:07;30.40;57.40
2012;DHT22;1009;51.436;6.972;2023-06-10T15:43:35;30.30;56.80
2012;DHT22;1009;51.436;6.972;2023-06-10T15:46:02;30.30;56.60
2012;DHT22;1009;51.436;6.972;2023-06-10T15:48:28;30.20;57.60
2012;DHT22;1009;51.436;6.972;2023-06-10T15:50:55;30.40;59.30
2012;DHT22;1009;51.436;6.972;2023-06-10T15:53:22;30.40;57.30
2012;DHT22;1009;51.436;6.972;2023-06-10T15:55:49;30.40;57.90
2012;DHT22;1009;51.436;6.972;2023-06-10T15:58:15;30.40;58.50
2012;DHT22;1009;51.436;6.972;2023-06-10T16:00:43;30.40;59.50
2012;DHT22;1009;51.436;6.972;2023-06-10T16:03:10;30.40;60.80
2012;DHT22;1009;51.436;6.972;2023-06-10T16:05:37;30.20;59.70